createdAt,value
2023-03-11T00:00:30.123Z,99.97
2023-03-11T00:03:32.684Z,97.59
2023-03-11T00:06:36.058Z,93.59
2023-03-11T00:09:38.730Z,89.97
2023-03-11T00:12:41.331Z,88.89
2023-03-11T00:15:45.845Z,85.48
2023-03-11T00:18:50.923Z,84.80
2023-03-11T00:21:53.671Z,83.71
2023-03-11T00:24:56.251Z,83.41
2023-03-11T00:27:59.482Z,83.74
2023-03-11T00:31:02.773Z,84.81
2023-03-11T00:34:05.401Z,84.35
2023-03-11T00:37:09.102Z,85.43
2023-03-11T00:40:14.100Z,83.46
2023-03-11T00:43:17.561Z,83.99
2023-03-11T00:46:20.621Z,83.51
2023-03-11T00:49:23.454Z,82.63
2023-03-11T00:52:26.140Z,83.44
2023-03-11T00:55:31.263Z,83.72
2023-03-11T00:58:35.981Z,82.93
2023-03-11T01:01:39.050Z,82.98
2023-03-11T01:04:41.768Z,82.81
2023-03-11T01:07:44.273Z,82.88
2023-03-11T01:10:46.836Z,83.17
2023-03-11T01:13:49.542Z,83.34
2023-03-11T01:16:53.925Z,83.27
2023-03-11T01:19:56.576Z,82.21
2023-03-11T01:22:59.207Z,82.12
2023-03-11T01:26:01.791Z,81.26
2023-03-11T01:29:04.546Z,81.54
2023-03-11T01:32:07.684Z,80.03
2023-03-11T01:35:15.199Z,79.34
2023-03-11T01:38:17.851Z,78.26
2023-03-11T01:41:20.464Z,76.58
2023-03-11T01:44:23.295Z,76.63
2023-03-11T01:47:39.954Z,74.71
2023-03-11T01:50:49.831Z,74.26
2023-03-11T01:53:54.140Z,74.61
2023-03-11T01:56:57.693Z,74.22
2023-03-11T02:00:02.207Z,73.48
2023-03-11T02:03:19.184Z,72.52
2023-03-11T02:06:23.747Z,72.56
2023-03-11T02:09:27.174Z,72.55
2023-03-11T02:12:34.460Z,71.71
2023-03-11T02:15:39.574Z,71.29
2023-03-11T02:18:43.073Z,70.36
2023-03-11T02:21:45.814Z,70.45
2023-03-11T02:25:09.639Z,70.26
2023-03-11T02:28:15.024Z,70.45
2023-03-11T02:31:18.388Z,70.04
2023-03-11T02:34:27.706Z,69.58
2023-03-11T02:37:30.414Z,70.41
2023-03-11T02:40:50.359Z,70.48
2023-03-11T02:43:55.339Z,71.31
2023-03-11T02:47:00.949Z,72.20
2023-03-11T02:50:05.403Z,72.95
2023-03-11T02:53:08.995Z,74.57
2023-03-11T02:56:11.608Z,76.17
2023-03-11T02:59:14.139Z,76.93
2023-03-11T03:02:16.973Z,77.34
2023-03-11T03:05:21.595Z,76.66
2023-03-11T03:08:24.990Z,76.66
2023-03-11T03:11:27.814Z,75.99
2023-03-11T03:14:30.542Z,75.35
2023-03-11T03:17:33.128Z,73.09
2023-03-11T03:20:35.998Z,71.25
2023-03-11T03:23:38.724Z,70.65
2023-03-11T03:26:41.477Z,70.42
2023-03-11T03:29:44.186Z,69.83
2023-03-11T03:32:47.666Z,72.57
2023-03-11T03:35:52.457Z,72.47
2023-03-11T03:39:01.741Z,72.05
2023-03-11T03:42:08.775Z,70.26
2023-03-11T03:45:15.700Z,67.55
2023-03-11T03:48:18.842Z,62.75
2023-03-11T03:51:21.725Z,63.91
2023-03-11T03:54:53.591Z,64.44
2023-03-11T03:57:56.346Z,64.16
2023-03-11T04:01:01.985Z,71.62
2023-03-11T04:04:05.241Z,73.59
2023-03-11T04:07:08.507Z,73.88
2023-03-11T04:10:14.417Z,71.57
2023-03-11T04:13:18.069Z,71.47
2023-03-11T04:16:23.064Z,70.92
2023-03-11T04:19:28.017Z,70.58
2023-03-11T04:22:30.924Z,69.99
2023-03-11T04:25:34.898Z,72.01
2023-03-11T04:28:38.524Z,73.01
2023-03-11T04:31:41.376Z,74.77
2023-03-11T04:34:45.035Z,74.09
2023-03-11T04:37:49.718Z,75.30
2023-03-11T04:40:52.858Z,73.89
2023-03-11T04:43:55.459Z,73.92
2023-03-11T04:46:58.298Z,73.27
2023-03-11T04:50:01.343Z,70.04
2023-03-11T04:53:04.137Z,68.12
2023-03-11T04:56:07.167Z,63.21
2023-03-11T04:59:11.726Z,62.45
2023-03-11T05:02:15.917Z,61.13
2023-03-11T05:05:26.498Z,60.33
2023-03-11T05:08:29.058Z,60.29
2023-03-11T05:11:31.669Z,61.37
2023-03-11T05:14:34.406Z,60.49
2023-03-11T05:17:37.248Z,58.67
2023-03-11T05:20:41.127Z,58.43
2023-03-11T05:23:45.573Z,59.24
2023-03-11T05:26:50.077Z,59.05
2023-03-11T05:29:52.888Z,58.10
2023-03-11T05:32:56.824Z,57.64
2023-03-11T05:36:06.034Z,59.44
2023-03-11T05:39:09.026Z,57.95
2023-03-11T05:42:12.243Z,58.82
2023-03-11T05:45:15.914Z,55.10
2023-03-11T05:48:21.381Z,53.62
2023-03-11T05:51:24.478Z,55.30
2023-03-11T05:54:27.300Z,51.52
2023-03-11T05:57:30.556Z,50.58
2023-03-11T06:00:33.742Z,51.18
2023-03-11T06:03:40.053Z,49.29
2023-03-11T06:06:42.741Z,49.90
2023-03-11T06:09:45.927Z,50.48
2023-03-11T06:12:53.047Z,50.35
2023-03-11T06:16:00.908Z,49.68
2023-03-11T06:19:03.759Z,51.53
2023-03-11T06:22:10.725Z,48.58
2023-03-11T06:25:13.762Z,48.51
2023-03-11T06:28:18.099Z,48.77
2023-03-11T06:31:25.393Z,49.31
2023-03-11T06:34:29.000Z,48.05
2023-03-11T06:37:31.659Z,48.96
2023-03-11T06:40:34.261Z,47.07
2023-03-11T06:43:36.955Z,46.77
2023-03-11T06:46:40.637Z,46.41
2023-03-11T06:49:43.562Z,46.04
2023-03-11T06:52:46.433Z,45.12
2023-03-11T06:56:04.490Z,46.28
2023-03-11T06:59:10.310Z,44.19
2023-03-11T07:02:13.883Z,43.67
2023-03-11T07:05:18.297Z,43.38
2023-03-11T07:08:21.795Z,40.42
2023-03-11T07:11:28.211Z,39.91
2023-03-11T07:14:38.039Z,38.82
2023-03-11T07:17:40.720Z,38.64
2023-03-11T07:20:44.059Z,37.65
2023-03-11T07:23:46.852Z,37.78
2023-03-11T07:26:49.391Z,37.40
2023-03-11T07:29:51.944Z,35.76
2023-03-11T07:32:54.498Z,36.94
2023-03-11T07:35:57.241Z,37.47
2023-03-11T07:39:04.484Z,37.38
2023-03-11T07:42:07.318Z,38.99
2023-03-11T07:45:11.628Z,37.45
2023-03-11T07:48:14.863Z,38.44
2023-03-11T07:51:26.562Z,39.63
2023-03-11T07:54:29.472Z,37.96
2023-03-11T07:57:32.001Z,38.98
2023-03-11T08:00:34.603Z,39.98
2023-03-11T08:03:37.708Z,39.29
2023-03-11T08:06:43.074Z,37.55
2023-03-11T08:09:45.607Z,38.61
2023-03-11T08:12:48.187Z,37.54
2023-03-11T08:15:50.708Z,39.87
2023-03-11T08:18:53.515Z,38.17
2023-03-11T08:21:57.384Z,37.82
2023-03-11T08:24:59.986Z,37.27
2023-03-11T08:28:02.720Z,37.78
2023-03-11T08:31:13.388Z,38.74
2023-03-11T08:34:16.148Z,38.23
2023-03-11T08:37:18.765Z,37.24
2023-03-11T08:40:21.346Z,37.36
2023-03-11T08:43:23.857Z,37.60
2023-03-11T08:46:32.865Z,39.25
2023-03-11T08:49:36.448Z,39.70
2023-03-11T08:52:38.993Z,39.73
2023-03-11T08:55:41.560Z,40.19
2023-03-11T08:58:44.154Z,38.77
2023-03-11T09:01:47.045Z,38.44
2023-03-11T09:04:49.644Z,38.33
2023-03-11T09:07:52.239Z,39.28
2023-03-11T09:10:54.857Z,38.61
2023-03-11T09:13:57.684Z,38.78
2023-03-11T09:17:00.440Z,38.57
2023-03-11T09:20:04.233Z,39.52
2023-03-11T09:23:07.255Z,39.86
2023-03-11T09:26:09.868Z,39.57
2023-03-11T09:29:12.518Z,39.56
2023-03-11T09:32:15.791Z,39.25
2023-03-11T09:35:18.461Z,38.99
2023-03-11T09:38:21.064Z,40.44
2023-03-11T09:41:58.038Z,38.79
2023-03-11T09:45:10.054Z,38.44
2023-03-11T09:48:32.420Z,39.19
2023-03-11T09:51:42.000Z,38.51
2023-03-11T09:54:51.077Z,38.90
2023-03-11T09:57:54.956Z,40.77
2023-03-11T10:00:57.718Z,41.02
2023-03-11T10:04:40.105Z,39.97
2023-03-11T10:07:47.512Z,39.20
2023-03-11T10:11:11.251Z,39.22
2023-03-11T10:14:25.957Z,39.25
2023-03-11T10:17:40.575Z,39.32
2023-03-11T10:20:55.808Z,39.22
2023-03-11T10:24:32.230Z,40.80
2023-03-11T10:27:57.085Z,39.92
2023-03-11T10:31:19.033Z,39.42
2023-03-11T10:34:44.275Z,40.26
2023-03-11T10:37:54.972Z,38.37
2023-03-11T10:41:01.551Z,38.67
2023-03-11T10:44:13.901Z,39.83
2023-03-11T10:47:23.169Z,40.29
2023-03-11T10:50:25.850Z,38.76
2023-03-11T10:53:29.184Z,38.65
2023-03-11T10:56:40.602Z,38.46
2023-03-11T10:59:48.690Z,38.56
2023-03-11T11:02:53.967Z,37.15
2023-03-11T11:06:06.030Z,36.83
2023-03-11T11:09:21.252Z,38.04
2023-03-11T11:12:23.748Z,37.65
2023-03-11T11:15:35.449Z,37.12
2023-03-11T11:18:59.648Z,38.32
2023-03-11T11:22:06.171Z,38.53
2023-03-11T11:25:30.337Z,38.88
2023-03-11T11:28:34.071Z,38.73
2023-03-11T11:31:46.619Z,39.34
2023-03-11T11:35:01.409Z,40.13
2023-03-11T11:38:04.386Z,40.44
2023-03-11T11:41:09.561Z,39.89
2023-03-11T11:44:16.017Z,41.21
2023-03-11T11:47:30.130Z,41.45
2023-03-11T11:50:44.759Z,41.12
2023-03-11T11:53:50.510Z,39.97
2023-03-11T11:56:55.000Z,39.83
2023-03-11T11:59:57.794Z,39.91
2023-03-11T12:03:10.586Z,40.43
2023-03-11T12:06:32.852Z,41.03
2023-03-11T12:09:50.669Z,41.69
2023-03-11T12:12:58.916Z,41.94
2023-03-11T12:16:19.416Z,41.58
2023-03-11T12:19:39.786Z,42.72
2023-03-11T12:23:05.726Z,41.46
2023-03-11T12:26:21.889Z,41.71
2023-03-11T12:29:37.304Z,41.75
2023-03-11T12:33:22.524Z,41.44
2023-03-11T12:36:37.655Z,40.97
2023-03-11T12:39:40.317Z,41.07
2023-03-11T12:42:42.780Z,41.70
2023-03-11T12:45:51.294Z,41.91
2023-03-11T12:49:12.063Z,42.23
2023-03-11T12:52:14.529Z,42.39
2023-03-11T12:55:16.991Z,42.47
2023-03-11T12:59:04.427Z,43.36
2023-03-11T13:02:09.732Z,42.02
2023-03-11T13:05:48.220Z,42.42
2023-03-11T13:08:54.972Z,41.87
2023-03-11T13:11:57.693Z,42.07
2023-03-11T13:15:18.407Z,42.58
2023-03-11T13:18:33.348Z,41.96
2023-03-11T13:21:39.273Z,41.02
2023-03-11T13:24:49.408Z,41.48
2023-03-11T13:27:56.055Z,41.40
2023-03-11T13:31:05.266Z,40.30
2023-03-11T13:34:26.302Z,40.83
2023-03-11T13:37:41.144Z,41.22
2023-03-11T13:40:45.421Z,41.39
2023-03-11T13:43:50.658Z,41.56
2023-03-11T13:46:58.453Z,39.74
2023-03-11T13:50:13.111Z,40.90
2023-03-11T13:53:43.162Z,40.67
2023-03-11T13:56:51.120Z,41.53
2023-03-11T13:59:57.022Z,40.69
2023-03-11T14:03:04.863Z,40.48
2023-03-11T14:06:12.384Z,40.06
2023-03-11T14:09:23.774Z,41.18
2023-03-11T14:12:31.102Z,42.80
2023-03-11T14:15:43.936Z,43.50
2023-03-11T14:19:04.021Z,42.86
2023-03-11T14:22:09.196Z,42.53
2023-03-11T14:25:18.915Z,43.61
2023-03-11T14:28:21.865Z,42.94
2023-03-11T14:31:41.921Z,42.64
2023-03-11T14:34:46.068Z,43.06
2023-03-11T14:37:49.080Z,44.64
2023-03-11T14:41:02.633Z,44.84
2023-03-11T14:44:05.914Z,40.91
2023-03-11T14:47:20.025Z,40.68
2023-03-11T14:50:35.247Z,39.13
2023-03-11T14:53:45.718Z,39.74
2023-03-11T14:56:53.019Z,37.83
2023-03-11T14:59:57.049Z,37.61
2023-03-11T15:03:24.966Z,37.96
2023-03-11T15:06:29.438Z,37.03
2023-03-11T15:09:32.809Z,36.16
2023-03-11T15:12:43.692Z,36.82
2023-03-11T15:15:55.384Z,36.01
2023-03-11T15:19:23.586Z,36.29
2023-03-11T15:22:30.260Z,36.07
2023-03-11T15:25:36.673Z,36.56
2023-03-11T15:28:39.953Z,36.15
2023-03-11T15:31:46.821Z,36.67
2023-03-11T15:35:22.253Z,36.72
2023-03-11T15:38:28.477Z,36.20
2023-03-11T15:41:31.097Z,35.73
2023-03-11T15:44:36.522Z,36.13
2023-03-11T15:47:39.720Z,37.47
2023-03-11T15:50:54.834Z,38.03
2023-03-11T15:53:57.653Z,37.87
2023-03-11T15:57:01.371Z,37.93
2023-03-11T16:00:05.078Z,38.22
2023-03-11T16:03:09.616Z,38.99
2023-03-11T16:06:12.168Z,38.13
2023-03-11T16:09:16.888Z,37.64
2023-03-11T16:12:21.464Z,39.33
2023-03-11T16:15:28.697Z,40.33
2023-03-11T16:18:32.520Z,41.63
2023-03-11T16:21:37.905Z,43.40
2023-03-11T16:24:40.789Z,42.45
2023-03-11T16:27:43.520Z,42.37
2023-03-11T16:30:46.787Z,42.99
2023-03-11T16:33:49.434Z,43.81
2023-03-11T16:36:52.065Z,44.52
2023-03-11T16:39:54.684Z,44.79
2023-03-11T16:43:08.460Z,44.35
2023-03-11T16:46:11.105Z,45.93
2023-03-11T16:49:13.752Z,45.69
2023-03-11T16:52:20.193Z,45.41
2023-03-11T16:55:23.876Z,46.53
2023-03-11T16:58:26.597Z,46.59
2023-03-11T17:01:29.254Z,46.87
2023-03-11T17:04:32.095Z,47.76
2023-03-11T17:07:35.901Z,48.87
2023-03-11T17:10:43.617Z,49.40
2023-03-11T17:13:46.517Z,49.24
2023-03-11T17:16:49.330Z,49.69
2023-03-11T17:19:52.005Z,49.79
2023-03-11T17:22:54.554Z,49.44
2023-03-11T17:25:57.358Z,48.95
2023-03-11T17:29:00.140Z,48.60
2023-03-11T17:32:03.837Z,48.42
2023-03-11T17:35:07.182Z,49.85
2023-03-11T17:38:09.954Z,49.42
2023-03-11T17:41:15.310Z,50.14
2023-03-11T17:44:18.108Z,50.20
2023-03-11T17:47:21.420Z,49.95
2023-03-11T17:50:24.253Z,49.82
2023-03-11T17:53:26.970Z,50.65
2023-03-11T17:56:29.747Z,50.35
2023-03-11T17:59:32.440Z,50.31
2023-03-11T18:02:35.297Z,50.20
2023-03-11T18:05:39.777Z,50.25
2023-03-11T18:08:42.964Z,51.40
2023-03-11T18:11:45.741Z,50.90
2023-03-11T18:14:48.576Z,50.82
2023-03-11T18:17:51.237Z,51.27
2023-03-11T18:20:54.029Z,50.25
2023-03-11T18:23:57.952Z,51.19
2023-03-11T18:27:00.767Z,50.83
2023-03-11T18:30:08.232Z,51.25
2023-03-11T18:33:10.974Z,51.65
2023-03-11T18:36:25.505Z,51.99
2023-03-11T18:39:28.314Z,52.69
2023-03-11T18:42:32.407Z,53.22
2023-03-11T18:45:35.247Z,54.36
2023-03-11T18:48:38.477Z,53.41
2023-03-11T18:51:41.419Z,52.90
2023-03-11T18:54:45.300Z,52.60
2023-03-11T18:57:47.904Z,53.21
2023-03-11T19:00:51.875Z,52.77
2023-03-11T19:03:56.754Z,53.44
2023-03-11T19:06:59.469Z,52.29
2023-03-11T19:10:02.135Z,51.64
2023-03-11T19:13:04.884Z,52.07
2023-03-11T19:16:09.007Z,51.87
2023-03-11T19:19:12.214Z,51.26
2023-03-11T19:22:14.903Z,51.72
2023-03-11T19:25:19.278Z,51.19
2023-03-11T19:28:22.720Z,51.14
2023-03-11T19:31:25.467Z,51.96
2023-03-11T19:34:29.029Z,51.44
2023-03-11T19:37:31.939Z,52.10
2023-03-11T19:40:34.677Z,51.91
2023-03-11T19:43:37.396Z,51.89
2023-03-11T19:46:40.248Z,51.29
2023-03-11T19:49:42.962Z,52.13
2023-03-11T19:52:45.882Z,52.24
2023-03-11T19:55:52.918Z,52.02
2023-03-11T19:58:56.863Z,51.73
2023-03-11T20:01:59.683Z,51.73
2023-03-11T20:05:02.542Z,51.85
2023-03-11T20:08:06.887Z,52.10
2023-03-11T20:11:09.823Z,52.50
2023-03-11T20:14:13.156Z,52.34
2023-03-11T20:17:16.036Z,51.61
2023-03-11T20:20:18.691Z,52.49
2023-03-11T20:23:21.412Z,53.08
2023-03-11T20:26:25.109Z,53.57
2023-03-11T20:29:27.848Z,53.18
2023-03-11T20:32:31.095Z,52.17
2023-03-11T20:35:34.412Z,53.06
2023-03-11T20:38:37.415Z,52.82
2023-03-11T20:41:40.793Z,53.04
2023-03-11T20:44:43.588Z,53.68
2023-03-11T20:47:46.496Z,53.21
2023-03-11T20:50:49.409Z,53.71
2023-03-11T20:53:52.473Z,53.71
2023-03-11T20:56:55.383Z,53.24
2023-03-11T20:59:58.161Z,54.10
2023-03-11T21:03:01.145Z,54.03
2023-03-11T21:06:04.387Z,53.82
2023-03-11T21:09:11.575Z,53.25
2023-03-11T21:12:14.316Z,53.02
2023-03-11T21:15:17.154Z,53.65
2023-03-11T21:18:19.688Z,53.90
2023-03-11T21:21:22.597Z,53.54
2023-03-11T21:24:25.208Z,54.05
2023-03-11T21:27:27.893Z,53.44
2023-03-11T21:30:30.548Z,53.63
2023-03-11T21:33:33.613Z,53.58
2023-03-11T21:36:37.985Z,53.35
2023-03-11T21:39:40.720Z,53.39
2023-03-11T21:42:43.264Z,54.52
2023-03-11T21:45:46.932Z,54.14
2023-03-11T21:48:49.934Z,54.28
2023-03-11T21:51:52.682Z,53.63
2023-03-11T21:54:56.557Z,54.61
2023-03-11T21:57:59.389Z,54.64
2023-03-11T22:01:02.158Z,54.69
2023-03-11T22:04:05.185Z,54.87
2023-03-11T22:07:08.138Z,54.99
2023-03-11T22:10:11.501Z,55.51
2023-03-11T22:13:14.193Z,55.52
2023-03-11T22:16:18.209Z,55.84
2023-03-11T22:19:20.894Z,56.20
2023-03-11T22:22:23.551Z,55.54
2023-03-11T22:25:26.197Z,55.64
2023-03-11T22:28:29.150Z,56.44
2023-03-11T22:31:31.858Z,56.29
2023-03-11T22:34:34.431Z,56.63
2023-03-11T22:37:37.012Z,56.58
2023-03-11T22:40:39.589Z,56.66
2023-03-11T22:43:42.170Z,57.10
2023-03-11T22:46:44.797Z,58.13
2023-03-11T22:49:47.658Z,58.41
2023-03-11T22:52:50.173Z,58.94
2023-03-11T22:55:53.153Z,58.85
2023-03-11T22:58:55.729Z,58.76
2023-03-11T23:01:58.559Z,59.85
2023-03-11T23:05:01.035Z,59.84
2023-03-11T23:08:03.770Z,59.68
2023-03-11T23:11:09.750Z,59.79
2023-03-11T23:14:12.232Z,59.98
2023-03-11T23:17:14.702Z,59.50
2023-03-11T23:20:17.568Z,59.77
2023-03-11T23:23:20.093Z,60.31
2023-03-11T23:26:23.348Z,60.75
2023-03-11T23:29:25.973Z,61.19
2023-03-11T23:32:28.839Z,60.80
2023-03-11T23:35:32.484Z,61.11
2023-03-11T23:38:36.144Z,61.30
2023-03-11T23:41:38.730Z,61.51
2023-03-11T23:45:00.080Z,62.04
2023-03-11T23:48:02.686Z,62.40
2023-03-11T23:51:05.886Z,62.10
2023-03-11T23:54:08.549Z,63.01
2023-03-11T23:57:11.107Z,63.12
